Aviation Digital Data Service (ADDS)

Output produced by TAFs form (0441 UTC 28 July 2017)
found at http://www.aviationweather.gov/adds/tafs/
 
KPIT 280351Z 00000KT 9SM FEW010 BKN043 OVC065 22/21 A2990 RMK AO2 SLP123 T02170211
KPIT 280333Z 2804/2906 23003KT P6SM FEW013 SCT025 BKN080 
     FM280600 VRB03KT P6SM SCT015 BKN025 
     FM280900 VRB03KT P6SM BKN015 
     FM281500 07003KT P6SM VCSH OVC020 
     FM282100 02015KT 5SM SHRA OVC035 
     FM290000 02008KT 3SM SHRA OVC008
       
KBVI 280047Z 00000KT 10SM OVC110 25/18 A2990
KBVI 272322Z 2800/2824 00000KT P6SM SCT120 
     FM281100 00000KT P6SM BKN030 
     FM281500 07003KT 5SM SHRA OVC020 AMD NOT SKED 2802/2812
       
KFKL 280435Z AUTO 01003KT 6SM CLR 18/17 A2992 RMK AO1
KFKL 272322Z 2800/2824 VRB03KT P6SM SCT100 
     FM281400 06005KT P6SM VCSH BKN035 
     FM281800 04006KT 6SM -SHRA OVC050 AMD LTD TO CLD VIS AND WIND
       
KERI 280351Z 00000KT 10SM SCT110 19/18 A2990 RMK AO2 SLP121 T01940178
KERI 272337Z 2800/2824 04005KT P6SM FEW200 
     FM281000 07010KT P6SM BKN150 
     FM281600 05015G25KT P6SM BKN070